Time;durP1;ratioP1;P1;durP2;ratioP2;P2;SDS_P1;SDS_P2;PMS_P1;PMS_P2;Temp;Humidity;BMP_temperature;BMP_pressure;BME280_temperature;BME280_humidity;BME280_pressure;Samples;Min_cycle;Max_cycle;Signal;HPM_P1;HPM_P2
2022/01/02 00:02:05;;;;;;;6.20;2.63;;;12.50;99.90;;;;;;5043009;28;20064;-62
2022/01/02 00:04:35;;;;;;;3.95;2.40;;;12.60;99.90;;;;;;5046740;28;20071;-62
2022/01/02 00:07:04;;;;;;;7.05;3.28;;;12.60;99.90;;;;;;5039602;28;20385;-62
2022/01/02 00:09:35;;;;;;;4.43;2.30;;;12.60;99.90;;;;;;5040891;28;20041;-62
2022/01/02 00:12:06;;;;;;;4.70;2.38;;;12.70;99.90;;;;;;5047278;28;20277;-62
2022/01/02 00:14:35;;;;;;;4.60;2.10;;;12.70;99.90;;;;;;5041049;28;20017;-62
2022/01/02 00:17:03;;;;;;;3.83;2.10;;;12.70;99.90;;;;;;5042518;28;20469;-62
2022/01/02 00:19:31;;;;;;;4.78;2.40;;;12.80;99.90;;;;;;5035648;28;20036;-62
2022/01/02 00:22:02;;;;;;;5.30;2.70;;;12.70;99.90;;;;;;5044703;28;20070;-62
2022/01/02 00:24:30;;;;;;;7.88;2.83;;;12.70;99.90;;;;;;5043615;28;20516;-61
2022/01/02 00:26:57;;;;;;;5.32;2.22;;;12.80;99.90;;;;;;5033616;28;20025;-62
2022/01/02 00:29:23;;;;;;;6.60;3.10;;;12.70;99.90;;;;;;5039395;28;20025;-62
2022/01/02 00:31:49;;;;;;;6.15;2.70;;;12.70;99.90;;;;;;5043267;28;20021;-62
2022/01/02 00:34:15;;;;;;;6.38;2.80;;;12.70;99.90;;;;;;5041568;28;20158;-62
2022/01/02 00:36:41;;;;;;;5.82;2.65;;;12.70;99.90;;;;;;5033809;28;20020;-61
2022/01/02 00:39:07;;;;;;;10.65;3.30;;;12.70;99.90;;;;;;5040585;28;20029;-62
2022/01/02 00:41:43;;;;;;;5.03;2.40;;;12.70;99.90;;;;;;5032877;28;20029;-62
2022/01/02 00:44:20;;;;;;;6.55;2.30;;;12.70;99.90;;;;;;5041053;28;20072;-62
2022/01/02 00:47:08;;;;;;;8.93;3.25;;;12.80;99.90;;;;;;5041157;28;20040;-62
2022/01/02 00:49:39;;;;;;;5.32;2.70;;;12.80;99.90;;;;;;5035457;28;20029;-61
2022/01/02 00:52:10;;;;;;;6.20;2.40;;;12.80;99.90;;;;;;5038700;28;20017;-62
2022/01/02 00:54:39;;;;;;;6.65;2.72;;;12.80;99.90;;;;;;5040265;28;20147;-61
2022/01/02 00:57:08;;;;;;;8.27;3.58;;;12.70;99.90;;;;;;5040104;28;20481;-62
2022/01/02 00:59:51;;;;;;;7.72;2.88;;;12.70;99.90;;;;;;5038201;28;20049;-62
2022/01/02 01:02:19;;;;;;;7.18;2.75;;;12.70;99.90;;;;;;5037360;28;20037;-62
2022/01/02 01:04:47;;;;;;;6.45;2.83;;;12.70;99.90;;;;;;5033094;28;20032;-61
2022/01/02 01:07:13;;;;;;;9.02;2.95;;;12.70;99.90;;;;;;5042937;28;20021;-62
2022/01/02 01:09:40;;;;;;;8.18;3.35;;;12.60;99.90;;;;;;5036210;28;20154;-62
2022/01/02 01:12:06;;;;;;;5.65;2.72;;;12.60;99.90;;;;;;5038352;28;20048;-62
2022/01/02 01:14:32;;;;;;;6.32;2.80;;;12.60;99.90;;;;;;5039660;28;20432;-62
2022/01/02 01:16:58;;;;;;;8.05;3.00;;;12.50;99.90;;;;;;5040570;28;20480;-62
2022/01/02 01:19:25;;;;;;;6.18;2.78;;;12.50;99.90;;;;;;5036995;28;20390;-62
2022/01/02 01:21:50;;;;;;;7.47;3.03;;;12.50;99.90;;;;;;5037831;28;20033;-61
2022/01/02 01:24:16;;;;;;;6.55;2.60;;;12.50;99.90;;;;;;5036750;28;20033;-62
2022/01/02 01:26:43;;;;;;;8.63;3.30;;;12.40;99.90;;;;;;5037471;28;20171;-62
2022/01/02 01:29:08;;;;;;;7.15;2.70;;;12.40;99.90;;;;;;5034833;28;20811;-61
2022/01/02 01:31:34;;;;;;;8.73;2.60;;;12.40;99.90;;;;;;5033220;28;20104;-61
2022/01/02 01:34:00;;;;;;;10.48;3.03;;;12.40;99.90;;;;;;5040233;28;20401;-61
2022/01/02 01:36:25;;;;;;;10.18;3.65;;;12.30;99.90;;;;;;5037177;28;20029;-61
2022/01/02 01:38:51;;;;;;;6.55;2.80;;;12.30;99.90;;;;;;5028932;28;20029;-62
2022/01/02 01:41:25;;;;;;;8.98;3.15;;;12.30;99.90;;;;;;5042793;28;20065;-61
2022/01/02 01:44:05;;;;;;;9.55;3.53;;;12.30;99.90;;;;;;5039641;28;20040;-62
2022/01/02 01:46:30;;;;;;;6.57;2.90;;;12.30;99.90;;;;;;5039368;28;20465;-61
2022/01/02 01:48:56;;;;;;;10.68;3.67;;;12.30;99.90;;;;;;5042534;28;20166;-61
2022/01/02 01:51:22;;;;;;;6.07;3.40;;;12.20;99.90;;;;;;5039850;28;20017;-61
2022/01/02 01:53:48;;;;;;;7.50;3.78;;;12.20;99.90;;;;;;5034275;28;20037;-61
2022/01/02 01:56:14;;;;;;;9.43;3.58;;;12.20;99.90;;;;;;5037140;28;20357;-61
2022/01/02 01:58:39;;;;;;;11.88;3.70;;;12.10;99.90;;;;;;5041186;28;20025;-61
2022/01/02 02:01:05;;;;;;;10.50;3.30;;;12.10;99.90;;;;;;5041965;28;20032;-61
2022/01/02 02:03:30;;;;;;;8.05;3.40;;;12.10;99.90;;;;;;5036155;28;20017;-61
2022/01/02 02:05:56;;;;;;;7.82;3.50;;;12.10;99.90;;;;;;5032096;28;20863;-61
2022/01/02 02:08:25;;;;;;;9.35;3.33;;;12.10;99.90;;;;;;5035130;28;20020;-61
2022/01/02 02:10:56;;;;;;;8.10;3.53;;;12.00;99.90;;;;;;5041897;28;20513;-61
2022/01/02 02:13:22;;;;;;;7.50;3.80;;;12.00;99.90;;;;;;5039001;28;20793;-62
2022/01/02 02:15:50;;;;;;;9.23;3.17;;;12.00;99.90;;;;;;5044258;28;20060;-61
2022/01/02 02:18:16;;;;;;;7.85;3.20;;;12.00;99.90;;;;;;5036979;28;20066;-61
2022/01/02 02:20:42;;;;;;;9.00;3.17;;;12.00;99.90;;;;;;5041041;28;20162;-62
2022/01/02 02:23:08;;;;;;;10.88;3.70;;;12.10;99.90;;;;;;5041314;28;20140;-61
2022/01/02 02:25:36;;;;;;;7.85;3.47;;;12.10;99.90;;;;;;5037760;28;20379;-61
2022/01/02 02:28:13;;;;;;;6.53;3.42;;;12.10;99.90;;;;;;5039210;28;20021;-61
2022/01/02 02:30:41;;;;;;;8.82;3.42;;;12.10;99.90;;;;;;5041671;28;20503;-61
2022/01/02 02:33:09;;;;;;;9.25;3.25;;;12.10;99.90;;;;;;5051105;28;20051;-62
2022/01/02 02:35:37;;;;;;;9.10;3.63;;;12.10;99.90;;;;;;5040791;28;20374;-62
2022/01/02 02:38:05;;;;;;;13.07;4.35;;;12.20;99.90;;;;;;5044296;28;20029;-61
2022/01/02 02:40:31;;;;;;;8.50;3.15;;;12.20;99.90;;;;;;5050718;28;20531;-62
2022/01/02 02:43:06;;;;;;;12.70;3.55;;;12.20;99.90;;;;;;5037285;28;20519;-61
2022/01/02 02:51:36;;;;;;;12.60;3.28;;;12.20;99.90;;;;;;5038220;28;20060;-61
2022/01/02 02:54:02;;;;;;;7.35;2.95;;;12.30;99.90;;;;;;5034961;28;20044;-61
2022/01/02 02:56:43;;;;;;;10.63;3.67;;;12.30;99.90;;;;;;5042220;28;20018;-61
2022/01/02 02:59:10;;;;;;;8.82;3.40;;;12.40;99.90;;;;;;5039588;28;20074;-61
2022/01/02 03:01:36;;;;;;;9.30;3.17;;;12.40;99.90;;;;;;5044508;28;20025;-61
2022/01/02 03:04:02;;;;;;;11.10;3.20;;;12.40;99.90;;;;;;5044026;28;20043;-61
2022/01/02 03:06:28;;;;;;;9.95;3.08;;;12.40;99.90;;;;;;5051895;28;20029;-61
2022/01/02 03:08:53;;;;;;;10.60;2.95;;;12.40;99.90;;;;;;5039099;28;20051;-62
2022/01/02 03:11:21;;;;;;;9.18;3.40;;;12.40;99.90;;;;;;5046013;28;20071;-61
2022/01/02 03:13:50;;;;;;;7.07;3.17;;;12.50;99.90;;;;;;5037192;28;20408;-61
2022/01/02 03:16:16;;;;;;;8.20;3.13;;;12.50;99.90;;;;;;5040718;28;20009;-61
2022/01/02 03:18:42;;;;;;;9.77;3.42;;;12.50;99.90;;;;;;5043548;28;20021;-62
2022/01/02 03:21:08;;;;;;;7.55;2.60;;;12.50;99.90;;;;;;5043229;28;20032;-61
2022/01/02 03:23:34;;;;;;;8.75;2.58;;;12.60;99.90;;;;;;5044429;28;20032;-61
2022/01/02 03:25:59;;;;;;;6.88;2.20;;;12.60;99.90;;;;;;5037518;28;20329;-61
2022/01/02 03:28:25;;;;;;;7.90;2.65;;;12.60;99.90;;;;;;5037254;28;20057;-61
2022/01/02 03:30:51;;;;;;;8.55;3.22;;;12.70;99.90;;;;;;5033841;28;20087;-62
2022/01/02 03:33:17;;;;;;;11.27;2.40;;;12.70;99.90;;;;;;5036137;28;20055;-62
2022/01/02 03:35:42;;;;;;;11.18;3.45;;;12.70;99.90;;;;;;5035120;28;20037;-61
2022/01/02 03:38:08;;;;;;;10.15;2.78;;;12.80;99.90;;;;;;5038844;28;20135;-62
2022/01/02 03:40:34;;;;;;;8.85;2.88;;;12.90;99.90;;;;;;5035857;28;20029;-62
2022/01/02 03:43:00;;;;;;;12.10;2.72;;;13.00;99.90;;;;;;5038919;28;20033;-62
2022/01/02 03:45:25;;;;;;;6.25;2.80;;;13.00;99.90;;;;;;5033301;28;20031;-62
2022/01/02 03:47:51;;;;;;;9.43;2.53;;;13.10;99.90;;;;;;5038461;28;20025;-62
2022/01/02 03:50:16;;;;;;;10.82;2.35;;;13.10;99.90;;;;;;5037357;28;20040;-62
2022/01/02 03:52:42;;;;;;;8.75;2.13;;;13.20;99.90;;;;;;5038931;28;20021;-61
2022/01/02 03:55:09;;;;;;;7.85;2.30;;;13.20;99.90;;;;;;5043130;28;20025;-62
2022/01/02 03:57:35;;;;;;;4.30;1.95;;;13.20;99.90;;;;;;5038513;28;20032;-62
2022/01/02 04:00:03;;;;;;;5.00;1.90;;;13.20;99.90;;;;;;5037111;28;20031;-62
2022/01/02 04:02:28;;;;;;;10.43;2.60;;;13.20;99.90;;;;;;5029634;28;20025;-62
2022/01/02 04:04:54;;;;;;;7.85;2.50;;;13.20;99.90;;;;;;5041324;28;20029;-62
2022/01/02 04:07:19;;;;;;;6.07;2.20;;;13.20;99.90;;;;;;5035660;28;20030;-62
2022/01/02 04:09:45;;;;;;;5.95;2.50;;;13.20;99.90;;;;;;5040783;28;20049;-62
2022/01/02 04:12:10;;;;;;;7.63;2.17;;;13.10;99.90;;;;;;5040931;28;20485;-62
2022/01/02 04:14:36;;;;;;;7.35;2.28;;;13.10;99.90;;;;;;5037936;28;20096;-62
2022/01/02 04:17:02;;;;;;;9.50;2.75;;;13.00;99.90;;;;;;5036024;28;20030;-62
2022/01/02 04:19:27;;;;;;;13.70;4.80;;;12.90;99.90;;;;;;5033839;28;20108;-62
2022/01/02 04:21:53;;;;;;;13.35;3.30;;;12.90;99.90;;;;;;5040975;28;20033;-62
2022/01/02 04:24:18;;;;;;;5.55;2.65;;;12.80;99.90;;;;;;5036471;28;20405;-62
2022/01/02 04:26:44;;;;;;;9.50;3.42;;;12.80;99.90;;;;;;5038673;28;20041;-62
2022/01/02 04:29:09;;;;;;;9.82;3.15;;;12.70;99.90;;;;;;5035940;28;20021;-62
2022/01/02 04:31:35;;;;;;;7.93;3.22;;;12.70;99.90;;;;;;5037661;28;20449;-62
2022/01/02 04:34:01;;;;;;;10.18;2.65;;;12.60;99.90;;;;;;5038047;28;20033;-61
2022/01/02 04:36:26;;;;;;;8.93;2.90;;;12.60;99.90;;;;;;5033737;28;20125;-62
2022/01/02 04:38:52;;;;;;;9.10;3.03;;;12.50;99.90;;;;;;5030738;28;20029;-62
2022/01/02 04:41:17;;;;;;;10.65;3.13;;;12.50;99.90;;;;;;5035952;28;20500;-62
2022/01/02 04:43:43;;;;;;;8.25;3.17;;;12.50;99.90;;;;;;5044631;28;20040;-62
2022/01/02 04:46:08;;;;;;;6.53;3.08;;;12.50;99.90;;;;;;5037685;28;20035;-61
2022/01/02 04:48:34;;;;;;;7.70;2.45;;;12.50;99.90;;;;;;5036898;28;20389;-61
2022/01/02 04:50:59;;;;;;;9.27;3.42;;;12.50;99.90;;;;;;5043581;28;20040;-62
2022/01/02 04:53:25;;;;;;;7.72;3.53;;;12.50;99.90;;;;;;5041006;28;20036;-61
2022/01/02 04:55:50;;;;;;;7.63;2.45;;;12.50;99.90;;;;;;5040830;28;20025;-61
2022/01/02 04:58:17;;;;;;;9.65;3.20;;;12.60;99.90;;;;;;5038184;28;20017;-61
2022/01/02 05:00:43;;;;;;;8.25;2.50;;;12.60;99.90;;;;;;5039103;28;20033;-61
2022/01/02 05:03:09;;;;;;;11.50;3.08;;;12.60;99.90;;;;;;5037134;28;20485;-62
2022/01/02 05:05:34;;;;;;;7.55;2.53;;;12.60;99.90;;;;;;5034298;28;20030;-61
2022/01/02 05:08:00;;;;;;;11.40;3.00;;;12.50;99.90;;;;;;5040056;28;20056;-61
2022/01/02 05:10:25;;;;;;;10.82;3.17;;;12.50;99.90;;;;;;5033016;28;20149;-61
2022/01/02 05:12:51;;;;;;;9.90;2.97;;;12.50;99.90;;;;;;5038263;28;20039;-61
2022/01/02 05:15:17;;;;;;;11.93;3.00;;;12.50;99.90;;;;;;5040640;28;20463;-61
2022/01/02 05:17:44;;;;;;;7.60;2.83;;;12.40;99.90;;;;;;5038837;28;20518;-61
2022/01/02 05:20:10;;;;;;;10.30;4.10;;;12.40;99.90;;;;;;5039582;28;20064;-61
2022/01/02 05:22:35;;;;;;;7.00;3.25;;;12.30;99.90;;;;;;5034092;28;20103;-62
2022/01/02 05:25:01;;;;;;;5.63;2.45;;;12.30;99.90;;;;;;5039797;28;20028;-61
2022/01/02 05:27:26;;;;;;;8.73;4.45;;;12.30;99.90;;;;;;5034851;28;20215;-61
2022/01/02 05:29:52;;;;;;;8.02;3.45;;;12.20;99.90;;;;;;5042526;28;20036;-61
2022/01/02 05:32:17;;;;;;;7.68;3.53;;;12.20;99.90;;;;;;5036923;28;20026;-61
2022/01/02 05:34:43;;;;;;;7.63;2.58;;;12.20;99.90;;;;;;5038277;28;20021;-61
2022/01/02 05:37:08;;;;;;;9.63;3.45;;;12.20;99.90;;;;;;5040367;28;20040;-61
2022/01/02 05:39:34;;;;;;;6.90;2.58;;;12.20;99.90;;;;;;5042520;28;20024;-61
2022/01/02 05:42:00;;;;;;;9.27;3.10;;;12.10;99.90;;;;;;5036408;28;20021;-61
2022/01/02 05:44:26;;;;;;;6.95;3.08;;;12.10;99.90;;;;;;5030977;28;20030;-61
2022/01/02 05:46:52;;;;;;;6.72;3.25;;;12.10;99.90;;;;;;5033542;28;20094;-61
2022/01/02 05:49:18;;;;;;;11.45;3.53;;;12.10;99.90;;;;;;5037420;28;20021;-61
2022/01/02 05:51:43;;;;;;;9.07;3.10;;;12.00;99.90;;;;;;5042520;28;20028;-61
2022/01/02 05:54:10;;;;;;;8.43;3.85;;;12.00;99.90;;;;;;5041643;28;20032;-61
2022/01/02 05:56:36;;;;;;;5.13;2.47;;;12.00;99.90;;;;;;5033563;28;20021;-62
2022/01/02 05:59:01;;;;;;;7.03;3.20;;;12.00;99.90;;;;;;5041693;28;20375;-61
2022/01/02 06:01:27;;;;;;;7.45;2.53;;;12.10;99.90;;;;;;5036127;28;20045;-62
2022/01/02 06:03:52;;;;;;;7.10;2.70;;;12.10;99.90;;;;;;5040158;28;20064;-62
2022/01/02 06:06:18;;;;;;;5.35;2.47;;;12.20;99.90;;;;;;5036447;28;20114;-61
2022/01/02 06:08:43;;;;;;;8.75;3.03;;;12.20;99.90;;;;;;5035978;28;20088;-61
2022/01/02 06:11:10;;;;;;;8.30;3.38;;;12.20;99.90;;;;;;5035429;28;20048;-61
2022/01/02 06:13:36;;;;;;;9.02;2.70;;;12.20;99.90;;;;;;5036337;28;20100;-61
2022/01/02 06:16:02;;;;;;;9.98;2.97;;;12.10;99.90;;;;;;5041044;28;20029;-62
2022/01/02 06:18:27;;;;;;;5.43;3.08;;;12.10;99.90;;;;;;5038369;28;20032;-61
2022/01/02 06:20:53;;;;;;;6.78;3.20;;;12.00;99.90;;;;;;5042318;28;20545;-61
2022/01/02 06:23:18;;;;;;;7.80;2.90;;;11.90;99.90;;;;;;5044897;28;20108;-61
2022/01/02 06:25:45;;;;;;;7.13;3.35;;;11.90;99.90;;;;;;5042238;28;20052;-61
2022/01/02 06:28:11;;;;;;;7.40;3.22;;;11.90;99.90;;;;;;5039525;28;20024;-61
2022/01/02 06:30:37;;;;;;;7.63;3.10;;;11.80;99.90;;;;;;5043268;28;20391;-61
2022/01/02 06:33:03;;;;;;;5.32;2.80;;;11.80;99.90;;;;;;5051648;28;20071;-62
2022/01/02 06:35:32;;;;;;;7.25;2.92;;;11.80;99.90;;;;;;5050949;28;20492;-61
2022/01/02 06:37:58;;;;;;;13.80;3.67;;;11.70;99.90;;;;;;5051435;28;20033;-61
2022/01/02 06:40:25;;;;;;;9.93;3.72;;;11.70;99.90;;;;;;5051052;28;20029;-61
2022/01/02 06:42:51;;;;;;;7.97;3.28;;;11.70;99.90;;;;;;5051362;28;20489;-61
2022/01/02 06:45:16;;;;;;;11.15;3.63;;;11.70;99.90;;;;;;5049970;28;20032;-61
2022/01/02 06:47:42;;;;;;;7.93;2.83;;;11.70;99.90;;;;;;5051355;28;20069;-61
2022/01/02 06:50:09;;;;;;;8.15;3.17;;;11.60;99.90;;;;;;5051425;28;20385;-61
2022/01/02 06:52:35;;;;;;;7.57;3.22;;;11.60;99.90;;;;;;5051331;28;20033;-61
2022/01/02 06:55:00;;;;;;;8.60;3.05;;;11.60;99.90;;;;;;5051321;28;20021;-61
2022/01/02 06:57:26;;;;;;;7.80;3.58;;;11.60;99.90;;;;;;5051318;28;20021;-61
2022/01/02 06:59:51;;;;;;;7.60;2.80;;;11.60;99.90;;;;;;5051250;28;20079;-61
2022/01/02 07:02:17;;;;;;;6.82;2.88;;;11.70;99.90;;;;;;5051369;28;20043;-61
2022/01/02 07:04:43;;;;;;;11.10;4.00;;;11.60;99.90;;;;;;5051125;28;20499;-61
2022/01/02 07:07:09;;;;;;;8.82;3.15;;;11.70;99.90;;;;;;5051280;28;20033;-61
2022/01/02 07:09:34;;;;;;;7.22;2.47;;;11.60;99.90;;;;;;5050974;28;20045;-61
2022/01/02 07:12:00;;;;;;;10.85;2.10;;;11.70;99.90;;;;;;5051790;28;20025;-61
2022/01/02 07:14:27;;;;;;;10.20;2.85;;;11.70;99.90;;;;;;5054765;28;20028;-62
2022/01/02 07:16:59;;;;;;;6.68;2.70;;;11.70;99.90;;;;;;5048932;28;20504;-62
2022/01/02 07:19:25;;;;;;;6.75;2.60;;;11.70;99.90;;;;;;5048482;28;20039;-61
2022/01/02 07:21:52;;;;;;;6.20;2.30;;;11.70;99.90;;;;;;5038102;28;20104;-61
2022/01/02 07:24:18;;;;;;;7.03;2.65;;;11.70;99.90;;;;;;5051406;28;21035;-61
2022/01/02 07:26:44;;;;;;;6.88;2.20;;;11.70;99.90;;;;;;5047370;28;20049;-61
2022/01/02 07:29:10;;;;;;;7.72;2.85;;;11.70;99.90;;;;;;5052042;28;20056;-61
2022/01/02 07:31:36;;;;;;;6.05;2.25;;;11.70;99.90;;;;;;5053467;28;20473;-61
2022/01/02 07:34:02;;;;;;;5.95;3.33;;;11.70;99.90;;;;;;5054548;28;20024;-61
2022/01/02 07:36:28;;;;;;;9.45;2.25;;;11.70;99.90;;;;;;5054619;28;20021;-61
2022/01/02 07:38:53;;;;;;;6.00;2.75;;;11.70;99.90;;;;;;5052468;28;20025;-61
2022/01/02 07:41:19;;;;;;;7.45;2.38;;;11.70;99.90;;;;;;5053286;28;20029;-61
2022/01/02 07:43:44;;;;;;;4.82;2.50;;;11.70;99.90;;;;;;5054326;28;20025;-61
2022/01/02 07:46:10;;;;;;;4.65;2.20;;;11.70;99.90;;;;;;5054255;28;20029;-61
2022/01/02 07:48:36;;;;;;;11.13;3.33;;;11.70;99.90;;;;;;5045537;28;20025;-62
2022/01/02 07:51:02;;;;;;;4.38;2.00;;;11.70;99.90;;;;;;5049263;28;20061;-61
2022/01/02 07:53:27;;;;;;;8.35;2.38;;;11.60;99.90;;;;;;5052696;28;20547;-61
2022/01/02 07:56:04;;;;;;;8.65;2.88;;;11.70;99.90;;;;;;5048964;28;20108;-61
2022/01/02 07:58:30;;;;;;;8.32;2.20;;;11.70;99.90;;;;;;5035226;28;20033;-61
2022/01/02 08:00:55;;;;;;;6.00;2.40;;;11.70;99.90;;;;;;5049273;28;20056;-61
2022/01/02 08:03:21;;;;;;;4.75;1.95;;;11.70;99.90;;;;;;5052276;28;20059;-61
2022/01/02 08:05:46;;;;;;;4.88;2.28;;;11.80;99.90;;;;;;5050467;28;20025;-61
2022/01/02 08:08:12;;;;;;;7.80;2.22;;;11.80;99.90;;;;;;5052519;28;20032;-61
2022/01/02 08:10:38;;;;;;;5.32;2.30;;;11.90;99.90;;;;;;5051436;28;20032;-61
2022/01/02 08:13:04;;;;;;;5.03;1.98;;;11.90;99.90;;;;;;5052665;28;20013;-61
2022/01/02 08:15:30;;;;;;;6.78;2.40;;;11.90;99.90;;;;;;5052446;28;20020;-61
2022/01/02 08:17:55;;;;;;;4.68;2.05;;;11.90;99.90;;;;;;5050112;28;20475;-61
2022/01/02 08:20:21;;;;;;;2.83;1.73;;;12.00;99.90;;;;;;5052620;28;20381;-61
2022/01/02 08:22:46;;;;;;;4.72;2.15;;;12.00;99.90;;;;;;5052143;28;20029;-61
2022/01/02 08:25:12;;;;;;;3.50;1.70;;;12.10;99.90;;;;;;5048530;28;20025;-61
2022/01/02 08:27:45;;;;;;;5.32;1.80;;;12.10;99.90;;;;;;5050870;28;20545;-61
2022/01/02 08:30:11;;;;;;;5.88;1.70;;;12.10;99.90;;;;;;5049474;28;20487;-61
2022/01/02 08:32:38;;;;;;;3.80;2.00;;;12.10;99.90;;;;;;5052280;28;20029;-61
2022/01/02 08:35:05;;;;;;;5.15;1.85;;;12.10;99.90;;;;;;5052211;28;20051;-61
2022/01/02 08:37:31;;;;;;;3.80;1.90;;;12.10;99.90;;;;;;5052217;28;20079;-61
2022/01/02 08:39:56;;;;;;;3.50;1.80;;;12.20;99.90;;;;;;5049551;28;20687;-61
2022/01/02 08:42:22;;;;;;;4.00;1.65;;;12.20;99.90;;;;;;5052306;28;20039;-61
2022/01/02 08:44:53;;;;;;;4.85;2.00;;;12.20;99.90;;;;;;5052315;28;20501;-62
2022/01/02 08:47:18;;;;;;;4.50;1.67;;;12.20;99.90;;;;;;5052531;28;20029;-61
2022/01/02 08:49:44;;;;;;;3.88;2.03;;;12.10;99.90;;;;;;5067374;28;20039;-62
2022/01/02 08:52:10;;;;;;;6.63;1.90;;;12.10;99.90;;;;;;5045112;28;20017;-61
2022/01/02 08:54:35;;;;;;;4.10;2.00;;;12.20;99.90;;;;;;5032561;28;20110;-61
2022/01/02 08:57:02;;;;;;;5.45;1.83;;;12.20;99.90;;;;;;5032689;28;20033;-61
2022/01/02 08:59:28;;;;;;;4.18;1.77;;;12.20;99.90;;;;;;5032693;28;20579;-61
2022/01/02 09:01:55;;;;;;;4.20;1.80;;;12.30;99.90;;;;;;5032558;28;20037;-61
2022/01/02 09:04:20;;;;;;;5.68;2.33;;;12.30;99.90;;;;;;5037422;28;20060;-61
2022/01/02 09:06:46;;;;;;;3.80;2.13;;;12.30;99.90;;;;;;5049533;28;20049;-61
2022/01/02 09:09:11;;;;;;;5.85;2.13;;;12.30;99.90;;;;;;5050066;28;20056;-61
2022/01/02 09:11:37;;;;;;;3.75;1.98;;;12.30;99.90;;;;;;5051013;28;20028;-61
2022/01/02 09:14:03;;;;;;;5.00;2.20;;;12.30;99.90;;;;;;5051804;28;20032;-61
2022/01/02 09:16:30;;;;;;;4.93;2.30;;;12.40;99.90;;;;;;5040520;28;20083;-61
2022/01/02 09:18:56;;;;;;;5.63;2.40;;;12.40;99.90;;;;;;5031964;28;20021;-61
2022/01/02 09:21:21;;;;;;;5.03;1.95;;;12.40;99.90;;;;;;5030496;28;20477;-61
2022/01/02 09:23:55;;;;;;;4.05;2.13;;;12.50;99.90;;;;;;5031603;28;20366;-62
2022/01/02 09:26:20;;;;;;;7.90;2.53;;;12.60;99.90;;;;;;5031687;28;20036;-62
2022/01/02 09:28:46;;;;;;;6.57;2.40;;;12.50;99.90;;;;;;5031866;28;20029;-61
2022/01/02 09:31:11;;;;;;;6.95;2.55;;;12.60;99.90;;;;;;5032216;28;20573;-62
2022/01/02 09:33:37;;;;;;;6.22;2.50;;;12.70;99.90;;;;;;5031426;28;20033;-61
2022/01/02 09:36:02;;;;;;;4.85;2.40;;;12.80;99.90;;;;;;5031372;28;20033;-62
2022/01/02 09:38:28;;;;;;;5.85;2.33;;;12.80;99.90;;;;;;5031809;28;20032;-62
2022/01/02 09:41:07;;;;;;;4.07;2.42;;;12.80;99.90;;;;;;5031767;28;20030;-62
2022/01/02 09:43:32;;;;;;;5.50;2.30;;;12.80;99.90;;;;;;5014656;28;20175;-61
2022/01/02 09:45:59;;;;;;;5.78;2.78;;;12.90;99.90;;;;;;5031538;28;20108;-62
2022/01/02 09:48:26;;;;;;;5.05;2.42;;;12.90;99.90;;;;;;5031351;28;20017;-61
2022/01/02 09:50:52;;;;;;;5.13;2.60;;;13.00;99.90;;;;;;5031641;28;20056;-61
2022/01/02 09:53:17;;;;;;;3.22;2.53;;;13.00;99.90;;;;;;5031505;28;20033;-62
2022/01/02 09:55:43;;;;;;;5.05;2.92;;;13.00;99.90;;;;;;5031529;28;20075;-61
2022/01/02 09:58:29;;;;;;;4.63;3.28;;;13.00;99.90;;;;;;5031429;28;20018;-62
2022/01/02 10:00:55;;;;;;;6.85;3.13;;;13.10;99.90;;;;;;5031527;28;20079;-62
2022/01/02 10:03:23;;;;;;;7.70;3.33;;;13.10;99.80;;;;;;5031280;28;20487;-62
2022/01/02 10:05:59;;;;;;;7.53;2.97;;;13.20;99.90;;;;;;5031344;28;20025;-62
2022/01/02 10:08:26;;;;;;;5.32;2.83;;;13.40;99.80;;;;;;5044354;28;20642;-62
2022/01/02 10:11:07;;;;;;;5.43;2.83;;;13.70;99.40;;;;;;5050815;28;20086;-61
2022/01/02 10:13:53;;;;;;;7.50;3.45;;;14.10;99.00;;;;;;5051633;28;20059;-62
2022/01/02 10:16:20;;;;;;;7.65;3.53;;;14.30;97.70;;;;;;5051819;28;20061;-61
2022/01/02 10:18:48;;;;;;;8.43;3.75;;;14.10;97.70;;;;;;5050865;28;20037;-62
2022/01/02 10:21:28;;;;;;;8.63;3.50;;;13.90;97.80;;;;;;5051647;28;20029;-62
2022/01/02 10:24:29;;;;;;;7.38;2.95;;;13.80;98.00;;;;;;5051837;28;20078;-62
2022/01/02 10:27:18;;;;;;;7.18;3.40;;;13.90;98.40;;;;;;5051845;28;20022;-62
2022/01/02 10:29:57;;;;;;;4.72;2.97;;;13.90;98.20;;;;;;5051349;28;20106;-62
2022/01/02 10:32:41;;;;;;;8.13;3.50;;;13.90;98.20;;;;;;5051696;28;20481;-62
2022/01/02 10:35:30;;;;;;;6.60;3.42;;;13.80;98.00;;;;;;5051538;28;20551;-61
2022/01/02 10:37:58;;;;;;;;;;;13.70;98.10;;;;;;5049226;28;20091;-62
2022/01/02 10:40:47;;;;;;;5.63;3.13;;;13.60;98.20;;;;;;5044335;28;19963;-62
2022/01/02 10:43:49;;;;;;;7.93;2.97;;;13.50;98.30;;;;;;5048329;28;20485;-62
2022/01/02 10:46:14;;;;;;;7.63;3.10;;;13.60;98.40;;;;;;5052588;28;20033;-62
2022/01/02 10:48:42;;;;;;;6.25;2.83;;;13.60;98.50;;;;;;5055133;28;20087;-61
2022/01/02 10:51:14;;;;;;;6.82;3.05;;;14.00;98.40;;;;;;5054850;28;20029;-62
2022/01/02 10:53:52;;;;;;;8.38;3.20;;;14.40;98.10;;;;;;5055129;28;20025;-62
2022/01/02 10:56:21;;;;;;;5.97;2.80;;;14.60;97.00;;;;;;5055177;28;20449;-62
2022/01/02 10:58:47;;;;;;;5.18;2.50;;;14.40;96.80;;;;;;5054300;28;20017;-61
2022/01/02 11:01:12;;;;;;;7.97;3.13;;;14.20;97.10;;;;;;5054126;28;20029;-62
2022/01/02 11:03:38;;;;;;;7.68;3.05;;;14.00;97.30;;;;;;5053917;28;20029;-62
2022/01/02 11:06:09;;;;;;;8.00;3.70;;;13.90;97.50;;;;;;5053939;28;20087;-61
2022/01/02 11:08:43;;;;;;;6.00;2.95;;;13.80;97.70;;;;;;5050986;28;20029;-62
2022/01/02 11:11:09;;;;;;;6.25;2.50;;;13.70;97.80;;;;;;5053909;28;20021;-62
2022/01/02 11:13:35;;;;;;;6.50;3.10;;;13.60;98.00;;;;;;5052494;28;20021;-62
2022/01/02 11:16:02;;;;;;;7.45;2.67;;;13.60;98.20;;;;;;5048468;28;20017;-62
2022/01/02 11:18:43;;;;;;;7.38;3.00;;;13.60;98.30;;;;;;5049058;28;20033;-62
2022/01/02 11:21:10;;;;;;;8.60;3.05;;;13.50;98.40;;;;;;5054767;28;20071;-62
2022/01/02 11:24:04;;;;;;;5.68;2.67;;;13.50;98.50;;;;;;5051164;28;20032;-62
2022/01/02 11:27:08;;;;;;;9.98;2.65;;;13.50;98.50;;;;;;5047909;28;20472;-62
2022/01/02 11:29:34;;;;;;;9.70;2.90;;;13.50;98.70;;;;;;5040166;28;20389;-62
2022/01/02 11:31:59;;;;;;;8.02;2.55;;;13.50;98.90;;;;;;5050080;28;20021;-61
2022/01/02 11:34:31;;;;;;;9.07;2.97;;;13.50;98.90;;;;;;5057615;28;20016;-62
2022/01/02 11:37:19;;;;;;;6.63;2.42;;;13.50;99.10;;;;;;5052816;28;20025;-62
2022/01/02 11:39:58;;;;;;;4.88;2.20;;;13.50;99.00;;;;;;5056624;28;20059;-62
2022/01/02 11:42:41;;;;;;;6.93;2.33;;;13.50;99.10;;;;;;5064725;28;20493;-61
2022/01/02 11:45:09;;;;;;;9.70;2.97;;;13.50;99.20;;;;;;5053445;28;20110;-62
2022/01/02 11:47:44;;;;;;;7.57;2.65;;;13.40;99.30;;;;;;5053156;28;20025;-62
2022/01/02 11:50:35;;;;;;;6.40;3.40;;;13.50;99.30;;;;;;5055265;28;20028;-62
2022/01/02 11:53:13;;;;;;;8.45;2.58;;;13.50;99.20;;;;;;5049507;28;20021;-62
2022/01/02 11:55:40;;;;;;;10.93;3.00;;;13.50;99.20;;;;;;5051333;28;20036;-62
2022/01/02 11:58:05;;;;;;;8.52;2.38;;;13.50;99.20;;;;;;5069042;28;20480;-62
2022/01/02 12:01:00;;;;;;;5.55;2.30;;;13.60;99.10;;;;;;5057665;28;20036;-62
2022/01/02 12:03:57;;;;;;;9.95;2.90;;;13.70;99.00;;;;;;5061536;28;20105;-62
2022/01/02 12:06:37;;;;;;;5.35;2.47;;;13.70;98.90;;;;;;5069360;28;20029;-62
2022/01/02 12:09:24;;;;;;;7.15;2.78;;;13.70;98.80;;;;;;5061145;28;20492;-61
2022/01/02 12:11:59;;;;;;;7.45;2.42;;;13.70;98.90;;;;;;5057663;28;20028;-62
2022/01/02 12:14:25;;;;;;;9.02;2.63;;;13.70;98.90;;;;;;5052022;28;20400;-62
2022/01/02 12:16:58;;;;;;;6.15;2.63;;;13.70;98.80;;;;;;5051656;28;20029;-62
2022/01/02 12:19:25;;;;;;;7.93;2.47;;;13.70;98.90;;;;;;5051798;28;20392;-62
2022/01/02 12:22:14;;;;;;;8.40;2.22;;;13.70;98.90;;;;;;5042368;28;20539;-62
2022/01/02 12:24:41;;;;;;;9.70;2.65;;;13.70;98.90;;;;;;5052450;28;20029;-62
2022/01/02 12:27:15;;;;;;;7.82;2.45;;;13.70;98.90;;;;;;5046978;28;20420;-62
2022/01/02 12:29:41;;;;;;;7.50;2.50;;;13.70;98.90;;;;;;5046897;28;20016;-62
2022/01/02 12:32:07;;;;;;;6.10;2.60;;;13.70;98.90;;;;;;5049994;28;20025;-61
2022/01/02 12:34:34;;;;;;;7.60;2.10;;;13.70;98.90;;;;;;5052240;28;20096;-62
2022/01/02 12:36:59;;;;;;;9.35;2.33;;;13.70;98.80;;;;;;5052156;28;20492;-61
2022/01/02 12:39:34;;;;;;;8.07;2.88;;;13.70;98.90;;;;;;5052136;28;20021;-62
2022/01/02 12:42:03;;;;;;;13.07;2.67;;;13.70;98.90;;;;;;5049551;28;20116;-62
2022/01/02 12:44:32;;;;;;;8.90;2.42;;;13.70;99.10;;;;;;5052138;28;20090;-62
2022/01/02 12:47:00;;;;;;;8.48;3.00;;;13.70;99.00;;;;;;5046838;28;20043;-61
2022/01/02 12:49:37;;;;;;;9.43;2.55;;;13.70;99.10;;;;;;5051406;28;20043;-62
2022/01/02 12:52:08;;;;;;;6.40;2.22;;;13.70;99.00;;;;;;5044354;28;20119;-62
2022/01/02 12:54:36;;;;;;;7.25;2.25;;;13.70;99.10;;;;;;5050696;28;20099;-62
2022/01/02 12:57:33;;;;;;;8.05;3.00;;;13.70;99.20;;;;;;5049320;28;20039;-62
2022/01/02 12:59:59;;;;;;;10.73;2.53;;;13.80;99.10;;;;;;5048259;28;20396;-62